FDX36 EDDF-LFPG
Flight info
| Callsign | FDX36 |
|---|---|
| Flight time | 0h 49m |
| Altitude | 24000 |
| Route | SOBRA2L/18 SOBRA Y180 DIK UN857 TOLVU/N0422F230 DCT RAPOR DCT VEDUS |
| Aircraft | MD11/H-SDE1E2E3FGHIJ2J3J4J5M1RWXY/LB1D1 |
Departure
| Time | 2026-05-07 13:28 |
|---|---|
| Airport | Frankfurt Main Airport (EDDF) |
Arrival
| Time | 2026-05-07 14:17 |
|---|---|
| Airport | Charles de Gaulle International Airport (LFPG) |
| Time | Latitude | Longitude | Altitude | Speed | Heading |
|---|---|---|---|---|---|
| 2026-05-07 12:45 | 50.03815 | 8.53498 | 351 ft | 0 kts | 341° |
| 2026-05-07 13:16 | 50.03814 | 8.53498 | 351 ft | 2 kts | 341° |
| 2026-05-07 13:16 | 50.03790 | 8.53512 | 355 ft | 4 kts | 339° |
| 2026-05-07 13:16 | 50.03766 | 8.53526 | 361 ft | 4 kts | 349° |
| 2026-05-07 13:17 | 50.03742 | 8.53529 | 359 ft | 4 kts | 17° |
| 2026-05-07 13:17 | 50.03726 | 8.53520 | 360 ft | 4 kts | 69° |
| 2026-05-07 13:17 | 50.03721 | 8.53513 | 360 ft | 2 kts | 133° |
| 2026-05-07 13:17 | 50.03722 | 8.53511 | 360 ft | 0 kts | 134° |
| 2026-05-07 13:24 | 50.03720 | 8.53514 | 360 ft | 1 kts | 134° |
| 2026-05-07 13:24 | 50.03702 | 8.53540 | 358 ft | 6 kts | 140° |
| 2026-05-07 13:24 | 50.03661 | 8.53551 | 355 ft | 5 kts | 193° |
| 2026-05-07 13:24 | 50.03635 | 8.53519 | 357 ft | 5 kts | 230° |
| 2026-05-07 13:25 | 50.03616 | 8.53462 | 354 ft | 6 kts | 246° |
| 2026-05-07 13:25 | 50.03597 | 8.53391 | 348 ft | 8 kts | 249° |
| 2026-05-07 13:25 | 50.03571 | 8.53283 | 357 ft | 13 kts | 250° |
| 2026-05-07 13:25 | 50.03534 | 8.53129 | 356 ft | 16 kts | 250° |
| 2026-05-07 13:26 | 50.03494 | 8.52959 | 350 ft | 17 kts | 249° |
| 2026-05-07 13:26 | 50.03448 | 8.52789 | 350 ft | 14 kts | 249° |
| 2026-05-07 13:26 | 50.03420 | 8.52670 | 349 ft | 9 kts | 250° |
| 2026-05-07 13:26 | 50.03393 | 8.52606 | 352 ft | 6 kts | 213° |
| 2026-05-07 13:27 | 50.03366 | 8.52598 | 351 ft | 0 kts | 183° |
| 2026-05-07 13:27 | 50.03263 | 8.52596 | 351 ft | 44 kts | 179° |
| 2026-05-07 13:27 | 50.02655 | 8.52603 | 347 ft | 130 kts | 180° |
| 2026-05-07 13:28 | 50.01574 | 8.52651 | 675 ft | 168 kts | 179° |
| 2026-05-07 13:28 | 50.00387 | 8.52700 | 1660 ft | 168 kts | 180° |
| 2026-05-07 13:28 | 49.99158 | 8.52734 | 2114 ft | 195 kts | 179° |
| 2026-05-07 13:28 | 49.97653 | 8.52827 | 2601 ft | 226 kts | 178° |
| 2026-05-07 13:29 | 49.96042 | 8.52941 | 3192 ft | 233 kts | 178° |
| 2026-05-07 13:29 | 49.94414 | 8.53060 | 3610 ft | 238 kts | 178° |
| 2026-05-07 13:29 | 49.92776 | 8.53180 | 4791 ft | 230 kts | 179° |
| 2026-05-07 13:29 | 49.91165 | 8.53298 | 5999 ft | 237 kts | 179° |
| 2026-05-07 13:30 | 49.89498 | 8.53419 | 7154 ft | 241 kts | 179° |
| 2026-05-07 13:30 | 49.87791 | 8.53443 | 8102 ft | 247 kts | 191° |
| 2026-05-07 13:30 | 49.86090 | 8.52794 | 8862 ft | 268 kts | 199° |
| 2026-05-07 13:30 | 49.84259 | 8.51826 | 9610 ft | 281 kts | 201° |
| 2026-05-07 13:31 | 49.82380 | 8.50769 | 10338 ft | 299 kts | 202° |
| 2026-05-07 13:31 | 49.80365 | 8.49430 | 10472 ft | 330 kts | 210° |
| 2026-05-07 13:31 | 49.78457 | 8.47313 | 10706 ft | 351 kts | 227° |
| 2026-05-07 13:31 | 49.77016 | 8.44242 | 11476 ft | 354 kts | 245° |
| 2026-05-07 13:32 | 49.76282 | 8.40597 | 11940 ft | 356 kts | 264° |
| 2026-05-07 13:32 | 49.76395 | 8.36812 | 12549 ft | 358 kts | 281° |
| 2026-05-07 13:32 | 49.76952 | 8.33047 | 13374 ft | 362 kts | 285° |
| 2026-05-07 13:32 | 49.77631 | 8.29259 | 14130 ft | 366 kts | 286° |
| 2026-05-07 13:33 | 49.78326 | 8.25443 | 14891 ft | 370 kts | 286° |
| 2026-05-07 13:33 | 49.79005 | 8.21583 | 15632 ft | 373 kts | 285° |
| 2026-05-07 13:33 | 49.79670 | 8.17668 | 16378 ft | 377 kts | 284° |
| 2026-05-07 13:33 | 49.80316 | 8.13763 | 17093 ft | 381 kts | 284° |
| 2026-05-07 13:34 | 49.80966 | 8.09758 | 17823 ft | 385 kts | 284° |
| 2026-05-07 13:34 | 49.82265 | 8.01615 | 19134 ft | 393 kts | 283° |
| 2026-05-07 13:34 | 49.82914 | 7.97490 | 19756 ft | 396 kts | 283° |
| 2026-05-07 13:35 | 49.83569 | 7.93318 | 20359 ft | 400 kts | 283° |
| 2026-05-07 13:35 | 49.84216 | 7.89195 | 20959 ft | 403 kts | 283° |
| 2026-05-07 13:35 | 49.84882 | 7.84946 | 21553 ft | 407 kts | 283° |
| 2026-05-07 13:35 | 49.85554 | 7.80651 | 22177 ft | 411 kts | 283° |
| 2026-05-07 13:36 | 49.86234 | 7.76312 | 22732 ft | 415 kts | 283° |
| 2026-05-07 13:36 | 49.86918 | 7.71944 | 23143 ft | 417 kts | 283° |
| 2026-05-07 13:36 | 49.87590 | 7.67613 | 23557 ft | 419 kts | 283° |
| 2026-05-07 13:36 | 49.88275 | 7.63183 | 23892 ft | 423 kts | 283° |
| 2026-05-07 13:37 | 49.88960 | 7.58743 | 23998 ft | 422 kts | 283° |
| 2026-05-07 13:37 | 49.89621 | 7.54445 | 24007 ft | 395 kts | 283° |
| 2026-05-07 13:37 | 49.90245 | 7.50393 | 24018 ft | 381 kts | 283° |
| 2026-05-07 13:37 | 49.90855 | 7.46417 | 24020 ft | 377 kts | 283° |
| 2026-05-07 13:38 | 49.91455 | 7.42494 | 24027 ft | 377 kts | 283° |
| 2026-05-07 13:38 | 49.92058 | 7.38547 | 24027 ft | 376 kts | 283° |
| 2026-05-07 13:38 | 49.92661 | 7.34586 | 24038 ft | 376 kts | 283° |
| 2026-05-07 13:38 | 49.93263 | 7.30625 | 24038 ft | 377 kts | 283° |
| 2026-05-07 13:39 | 49.93864 | 7.26662 | 24034 ft | 376 kts | 283° |
| 2026-05-07 13:39 | 49.94460 | 7.22720 | 24038 ft | 377 kts | 283° |
| 2026-05-07 13:39 | 49.95060 | 7.18739 | 24037 ft | 377 kts | 283° |
| 2026-05-07 13:39 | 49.95656 | 7.14781 | 24039 ft | 376 kts | 283° |
| 2026-05-07 13:40 | 49.96249 | 7.10825 | 24039 ft | 377 kts | 283° |
| 2026-05-07 13:40 | 49.96836 | 7.06904 | 24036 ft | 376 kts | 283° |
| 2026-05-07 13:40 | 49.97426 | 7.02948 | 24034 ft | 376 kts | 283° |
| 2026-05-07 13:40 | 49.98019 | 6.98972 | 24031 ft | 376 kts | 283° |
| 2026-05-07 13:41 | 49.98606 | 6.95018 | 24024 ft | 376 kts | 283° |
| 2026-05-07 13:41 | 49.99127 | 6.91032 | 24022 ft | 376 kts | 276° |
| 2026-05-07 13:41 | 49.99266 | 6.86965 | 24025 ft | 376 kts | 269° |
| 2026-05-07 13:41 | 49.99189 | 6.82908 | 24025 ft | 376 kts | 267° |
| 2026-05-07 13:42 | 49.99043 | 6.78861 | 24025 ft | 375 kts | 266° |
| 2026-05-07 13:42 | 49.98887 | 6.74813 | 24027 ft | 374 kts | 266° |
| 2026-05-07 13:42 | 49.98739 | 6.70780 | 24026 ft | 374 kts | 266° |
| 2026-05-07 13:42 | 49.98602 | 6.66782 | 24027 ft | 374 kts | 267° |
| 2026-05-07 13:43 | 49.98470 | 6.62741 | 24026 ft | 374 kts | 267° |
| 2026-05-07 13:43 | 49.98332 | 6.58705 | 24025 ft | 374 kts | 265° |
| 2026-05-07 13:43 | 49.97833 | 6.54743 | 24009 ft | 374 kts | 253° |
| 2026-05-07 13:43 | 49.97085 | 6.51519 | 24012 ft | 374 kts | 248° |
| 2026-05-07 13:44 | 49.96080 | 6.47883 | 24013 ft | 374 kts | 246° |
| 2026-05-07 13:44 | 49.95016 | 6.44227 | 24014 ft | 374 kts | 246° |
| 2026-05-07 13:44 | 49.93943 | 6.40551 | 24013 ft | 374 kts | 246° |
| 2026-05-07 13:44 | 49.92890 | 6.36901 | 24023 ft | 374 kts | 246° |
| 2026-05-07 13:45 | 49.91836 | 6.33212 | 24021 ft | 371 kts | 246° |
| 2026-05-07 13:45 | 49.90797 | 6.29548 | 24024 ft | 371 kts | 246° |
| 2026-05-07 13:45 | 49.89728 | 6.25903 | 24025 ft | 371 kts | 245° |
| 2026-05-07 13:45 | 49.88674 | 6.22257 | 24030 ft | 371 kts | 246° |
| 2026-05-07 13:46 | 49.87640 | 6.18583 | 24030 ft | 371 kts | 246° |
| 2026-05-07 13:46 | 49.86607 | 6.14916 | 24033 ft | 370 kts | 244° |
| 2026-05-07 13:46 | 49.85369 | 6.11469 | 24035 ft | 371 kts | 238° |
| 2026-05-07 13:46 | 49.83918 | 6.08101 | 24035 ft | 371 kts | 236° |
| 2026-05-07 13:47 | 49.82443 | 6.04885 | 24033 ft | 371 kts | 235° |
| 2026-05-07 13:47 | 49.80931 | 6.01638 | 24030 ft | 371 kts | 235° |
| 2026-05-07 13:47 | 49.79420 | 5.98388 | 24033 ft | 372 kts | 235° |
| 2026-05-07 13:47 | 49.77912 | 5.95131 | 24037 ft | 372 kts | 235° |
| 2026-05-07 13:48 | 49.76408 | 5.91868 | 24039 ft | 372 kts | 235° |
| 2026-05-07 13:48 | 49.74928 | 5.88638 | 24037 ft | 371 kts | 237° |
| 2026-05-07 13:48 | 49.73677 | 5.85148 | 24039 ft | 370 kts | 245° |
| 2026-05-07 13:48 | 49.72706 | 5.81468 | 24038 ft | 369 kts | 249° |
| 2026-05-07 13:49 | 49.71840 | 5.77722 | 24037 ft | 369 kts | 251° |
| 2026-05-07 13:49 | 49.70999 | 5.73953 | 24039 ft | 369 kts | 251° |
| 2026-05-07 13:49 | 49.70160 | 5.70200 | 24038 ft | 369 kts | 250° |
| 2026-05-07 13:49 | 49.69311 | 5.66447 | 24038 ft | 369 kts | 250° |
| 2026-05-07 13:50 | 49.68465 | 5.62747 | 24036 ft | 369 kts | 250° |
| 2026-05-07 13:50 | 49.67612 | 5.59048 | 24038 ft | 369 kts | 250° |
| 2026-05-07 13:50 | 49.66744 | 5.55309 | 24042 ft | 369 kts | 250° |
| 2026-05-07 13:50 | 49.65875 | 5.51575 | 24040 ft | 369 kts | 250° |
| 2026-05-07 13:51 | 49.65004 | 5.47846 | 24037 ft | 369 kts | 250° |
| 2026-05-07 13:51 | 49.64131 | 5.44119 | 24039 ft | 369 kts | 250° |
| 2026-05-07 13:51 | 49.63257 | 5.40391 | 24037 ft | 369 kts | 250° |
| 2026-05-07 13:51 | 49.62396 | 5.36651 | 24046 ft | 370 kts | 251° |
| 2026-05-07 13:52 | 49.61571 | 5.32895 | 24040 ft | 369 kts | 251° |
| 2026-05-07 13:52 | 49.60763 | 5.29135 | 24038 ft | 369 kts | 251° |
| 2026-05-07 13:52 | 49.59961 | 5.25373 | 24041 ft | 369 kts | 251° |
| 2026-05-07 13:52 | 49.59276 | 5.21560 | 24038 ft | 370 kts | 260° |
| 2026-05-07 13:53 | 49.59039 | 5.17697 | 24042 ft | 370 kts | 267° |
| 2026-05-07 13:53 | 49.59025 | 5.13712 | 24042 ft | 370 kts | 270° |
| 2026-05-07 13:53 | 49.59086 | 5.09734 | 24042 ft | 371 kts | 270° |
| 2026-05-07 13:53 | 49.59158 | 5.05764 | 24042 ft | 370 kts | 270° |
| 2026-05-07 13:54 | 49.59222 | 5.01791 | 24043 ft | 370 kts | 270° |
| 2026-05-07 13:54 | 49.59274 | 4.97820 | 24044 ft | 370 kts | 270° |
| 2026-05-07 13:54 | 49.59316 | 4.93841 | 24045 ft | 370 kts | 270° |
| 2026-05-07 13:54 | 49.59352 | 4.89916 | 24043 ft | 371 kts | 270° |
| 2026-05-07 13:55 | 49.59384 | 4.85935 | 24045 ft | 371 kts | 270° |
| 2026-05-07 13:55 | 49.59412 | 4.81948 | 24045 ft | 372 kts | 270° |
| 2026-05-07 13:55 | 49.59437 | 4.77959 | 24045 ft | 372 kts | 270° |
| 2026-05-07 13:55 | 49.59454 | 4.73973 | 24047 ft | 372 kts | 270° |
| 2026-05-07 13:56 | 49.59471 | 4.69990 | 24045 ft | 372 kts | 270° |
| 2026-05-07 13:56 | 49.59488 | 4.65995 | 24047 ft | 372 kts | 270° |
| 2026-05-07 13:56 | 49.59506 | 4.62008 | 24051 ft | 372 kts | 270° |
| 2026-05-07 13:56 | 49.59524 | 4.58070 | 24051 ft | 372 kts | 270° |
| 2026-05-07 13:57 | 49.59541 | 4.54094 | 24048 ft | 372 kts | 270° |
| 2026-05-07 13:57 | 49.59557 | 4.50089 | 24049 ft | 372 kts | 270° |
| 2026-05-07 13:57 | 49.59572 | 4.46103 | 24051 ft | 372 kts | 270° |
| 2026-05-07 13:57 | 49.59586 | 4.42104 | 24051 ft | 372 kts | 270° |
| 2026-05-07 13:58 | 49.59598 | 4.38154 | 24051 ft | 372 kts | 270° |
| 2026-05-07 13:58 | 49.59610 | 4.34127 | 23827 ft | 383 kts | 270° |
| 2026-05-07 13:58 | 49.59620 | 4.30025 | 23178 ft | 381 kts | 270° |
| 2026-05-07 13:58 | 49.59629 | 4.25935 | 22436 ft | 379 kts | 270° |
| 2026-05-07 13:59 | 49.59636 | 4.21889 | 21783 ft | 375 kts | 270° |
| 2026-05-07 13:59 | 49.59642 | 4.17893 | 21164 ft | 370 kts | 270° |
| 2026-05-07 13:59 | 49.59646 | 4.13929 | 20561 ft | 367 kts | 270° |
| 2026-05-07 13:59 | 49.59631 | 4.10011 | 19967 ft | 363 kts | 267° |
| 2026-05-07 14:00 | 49.59215 | 4.06206 | 19362 ft | 360 kts | 251° |
| 2026-05-07 14:00 | 49.58163 | 4.02782 | 18781 ft | 357 kts | 240° |
| 2026-05-07 14:00 | 49.56843 | 3.99559 | 18167 ft | 354 kts | 237° |
| 2026-05-07 14:00 | 49.55464 | 3.96426 | 17528 ft | 351 kts | 236° |
| 2026-05-07 14:01 | 49.54096 | 3.93329 | 16915 ft | 348 kts | 236° |
| 2026-05-07 14:01 | 49.52751 | 3.90239 | 16334 ft | 345 kts | 237° |
| 2026-05-07 14:01 | 49.51444 | 3.87197 | 15764 ft | 343 kts | 237° |
| 2026-05-07 14:01 | 49.50140 | 3.84135 | 15194 ft | 340 kts | 237° |
| 2026-05-07 14:02 | 49.48853 | 3.81094 | 14641 ft | 338 kts | 237° |
| 2026-05-07 14:02 | 49.48023 | 3.79076 | 14339 ft | 333 kts | 241° |
| 2026-05-07 14:02 | 49.46857 | 3.74693 | 13717 ft | 334 kts | 252° |
| 2026-05-07 14:02 | 49.46239 | 3.71279 | 13343 ft | 330 kts | 255° |
| 2026-05-07 14:03 | 49.45691 | 3.67935 | 13216 ft | 314 kts | 256° |
| 2026-05-07 14:03 | 49.45347 | 3.65805 | 13135 ft | 302 kts | 256° |
| 2026-05-07 14:03 | 49.44842 | 3.62700 | 13014 ft | 295 kts | 255° |
| 2026-05-07 14:03 | 49.44340 | 3.59659 | 13010 ft | 294 kts | 255° |
| 2026-05-07 14:04 | 49.43844 | 3.56680 | 13015 ft | 294 kts | 255° |
| 2026-05-07 14:04 | 49.43324 | 3.53574 | 13013 ft | 294 kts | 255° |
| 2026-05-07 14:04 | 49.42818 | 3.50565 | 13013 ft | 294 kts | 255° |
| 2026-05-07 14:04 | 49.42224 | 3.47563 | 13010 ft | 294 kts | 247° |
| 2026-05-07 14:05 | 49.41145 | 3.44903 | 12935 ft | 295 kts | 227° |
| 2026-05-07 14:05 | 49.39540 | 3.42957 | 12651 ft | 294 kts | 213° |
| 2026-05-07 14:05 | 49.37781 | 3.41389 | 12362 ft | 294 kts | 210° |
| 2026-05-07 14:05 | 49.35987 | 3.39893 | 12087 ft | 293 kts | 209° |
| 2026-05-07 14:06 | 49.34194 | 3.38398 | 11799 ft | 292 kts | 210° |
| 2026-05-07 14:06 | 49.32419 | 3.36905 | 11523 ft | 291 kts | 210° |
| 2026-05-07 14:06 | 49.30674 | 3.35422 | 11250 ft | 290 kts | 210° |
| 2026-05-07 14:06 | 49.28910 | 3.33913 | 10975 ft | 288 kts | 210° |
| 2026-05-07 14:07 | 49.27164 | 3.32397 | 10700 ft | 287 kts | 211° |
| 2026-05-07 14:07 | 49.25433 | 3.30862 | 10429 ft | 286 kts | 211° |
| 2026-05-07 14:07 | 49.23798 | 3.29226 | 10133 ft | 281 kts | 221° |
| 2026-05-07 14:07 | 49.22427 | 3.27127 | 9798 ft | 277 kts | 228° |
| 2026-05-07 14:08 | 49.21155 | 3.24926 | 9421 ft | 275 kts | 229° |
| 2026-05-07 14:08 | 49.19890 | 3.22741 | 9082 ft | 273 kts | 228° |
| 2026-05-07 14:08 | 49.18619 | 3.20591 | 8790 ft | 272 kts | 227° |
| 2026-05-07 14:08 | 49.17341 | 3.18465 | 8495 ft | 270 kts | 227° |
| 2026-05-07 14:09 | 49.16083 | 3.16401 | 8218 ft | 269 kts | 226° |
| 2026-05-07 14:09 | 49.14802 | 3.14318 | 7934 ft | 268 kts | 226° |
| 2026-05-07 14:09 | 49.13521 | 3.12248 | 7654 ft | 267 kts | 226° |
| 2026-05-07 14:09 | 49.12244 | 3.10195 | 7377 ft | 266 kts | 226° |
| 2026-05-07 14:10 | 49.10971 | 3.08154 | 7100 ft | 265 kts | 225° |
| 2026-05-07 14:10 | 49.09696 | 3.06115 | 6828 ft | 265 kts | 225° |
| 2026-05-07 14:10 | 49.08439 | 3.04109 | 6562 ft | 264 kts | 225° |
| 2026-05-07 14:10 | 49.07171 | 3.02090 | 6276 ft | 263 kts | 225° |
| 2026-05-07 14:11 | 49.05917 | 3.00064 | 5985 ft | 261 kts | 229° |
| 2026-05-07 14:11 | 49.05038 | 2.97693 | 5672 ft | 255 kts | 253° |
| 2026-05-07 14:11 | 49.04742 | 2.95144 | 5382 ft | 232 kts | 263° |
| 2026-05-07 14:11 | 49.04597 | 2.92807 | 5082 ft | 211 kts | 264° |
| 2026-05-07 14:12 | 49.04480 | 2.90670 | 4812 ft | 194 kts | 265° |
| 2026-05-07 14:12 | 49.04373 | 2.88708 | 4558 ft | 183 kts | 265° |
| 2026-05-07 14:12 | 49.04270 | 2.86793 | 4325 ft | 180 kts | 265° |
| 2026-05-07 14:12 | 49.04169 | 2.84894 | 4112 ft | 177 kts | 265° |
| 2026-05-07 14:13 | 49.04068 | 2.83002 | 3877 ft | 178 kts | 265° |
| 2026-05-07 14:13 | 49.03969 | 2.81119 | 3647 ft | 178 kts | 266° |
| 2026-05-07 14:13 | 49.03871 | 2.79261 | 3422 ft | 177 kts | 266° |
| 2026-05-07 14:13 | 49.03772 | 2.77387 | 3188 ft | 177 kts | 266° |
| 2026-05-07 14:14 | 49.03675 | 2.75518 | 2945 ft | 176 kts | 266° |
| 2026-05-07 14:14 | 49.03577 | 2.73660 | 2702 ft | 176 kts | 266° |
| 2026-05-07 14:14 | 49.03480 | 2.71800 | 2463 ft | 175 kts | 266° |
| 2026-05-07 14:14 | 49.03384 | 2.69949 | 2234 ft | 175 kts | 266° |
| 2026-05-07 14:15 | 49.03287 | 2.68099 | 1992 ft | 174 kts | 266° |
| 2026-05-07 14:15 | 49.03191 | 2.66269 | 1750 ft | 172 kts | 266° |
| 2026-05-07 14:15 | 49.03096 | 2.64463 | 1501 ft | 173 kts | 266° |
| 2026-05-07 14:15 | 49.02997 | 2.62636 | 1297 ft | 172 kts | 266° |
| 2026-05-07 14:16 | 49.02899 | 2.60824 | 1064 ft | 163 kts | 266° |
| 2026-05-07 14:16 | 49.02816 | 2.59174 | 802 ft | 152 kts | 266° |
| 2026-05-07 14:16 | 49.02727 | 2.57570 | 599 ft | 151 kts | 267° |
| 2026-05-07 14:16 | 49.02656 | 2.55988 | 411 ft | 151 kts | 266° |
| 2026-05-07 14:17 | 49.02581 | 2.54483 | 365 ft | 126 kts | 265° |
| 2026-05-07 14:17 | 49.02522 | 2.53412 | 366 ft | 71 kts | 264° |
| 2026-05-07 14:17 | 49.02494 | 2.52940 | 366 ft | 32 kts | 265° |
| 2026-05-07 14:17 | 49.02424 | 2.52734 | 368 ft | 18 kts | 216° |
| 2026-05-07 14:18 | 49.02332 | 2.52688 | 368 ft | 13 kts | 179° |
| 2026-05-07 14:18 | 49.02240 | 2.52701 | 365 ft | 13 kts | 175° |
| 2026-05-07 14:18 | 49.02149 | 2.52713 | 363 ft | 13 kts | 175° |
| 2026-05-07 14:18 | 49.02053 | 2.52725 | 365 ft | 15 kts | 175° |
| 2026-05-07 14:19 | 49.01949 | 2.52738 | 368 ft | 14 kts | 175° |
| 2026-05-07 14:19 | 49.01845 | 2.52750 | 370 ft | 16 kts | 175° |
| 2026-05-07 14:19 | 49.01770 | 2.52758 | 365 ft | 9 kts | 180° |
| 2026-05-07 14:19 | 49.01750 | 2.52742 | 370 ft | 5 kts | 219° |
| 2026-05-07 14:20 | 49.01731 | 2.52665 | 369 ft | 11 kts | 261° |
| 2026-05-07 14:20 | 49.01723 | 2.52544 | 364 ft | 13 kts | 264° |
| 2026-05-07 14:20 | 49.01713 | 2.52369 | 368 ft | 20 kts | 265° |
| 2026-05-07 14:20 | 49.01698 | 2.52124 | 363 ft | 26 kts | 265° |
| 2026-05-07 14:21 | 49.01683 | 2.51846 | 363 ft | 18 kts | 265° |
| 2026-05-07 14:21 | 49.01674 | 2.51658 | 368 ft | 18 kts | 265° |
| 2026-05-07 14:21 | 49.01665 | 2.51475 | 362 ft | 17 kts | 266° |
| 2026-05-07 14:21 | 49.01656 | 2.51299 | 367 ft | 16 kts | 265° |
| 2026-05-07 14:22 | 49.01647 | 2.51130 | 367 ft | 16 kts | 265° |
| 2026-05-07 14:22 | 49.01638 | 2.50967 | 366 ft | 15 kts | 265° |
| 2026-05-07 14:22 | 49.01629 | 2.50813 | 368 ft | 14 kts | 265° |
| 2026-05-07 14:22 | 49.01621 | 2.50664 | 362 ft | 14 kts | 265° |
| 2026-05-07 14:23 | 49.01614 | 2.50523 | 369 ft | 13 kts | 265° |
| 2026-05-07 14:23 | 49.01607 | 2.50390 | 363 ft | 12 kts | 265° |
| 2026-05-07 14:23 | 49.01600 | 2.50261 | 368 ft | 12 kts | 265° |
| 2026-05-07 14:23 | 49.01594 | 2.50139 | 364 ft | 11 kts | 265° |
| 2026-05-07 14:24 | 49.01588 | 2.50021 | 368 ft | 11 kts | 265° |
| 2026-05-07 14:24 | 49.01569 | 2.49920 | 369 ft | 9 kts | 231° |
| 2026-05-07 14:24 | 49.01520 | 2.49896 | 366 ft | 7 kts | 181° |
| 2026-05-07 14:24 | 49.01474 | 2.49899 | 366 ft | 6 kts | 178° |
| 2026-05-07 14:25 | 49.01433 | 2.49909 | 367 ft | 5 kts | 158° |
| 2026-05-07 14:25 | 49.01409 | 2.49939 | 366 ft | 4 kts | 141° |
| 2026-05-07 14:25 | 49.01388 | 2.49949 | 369 ft | 3 kts | 168° |
| 2026-05-07 14:25 | 49.01364 | 2.49955 | 364 ft | 4 kts | 172° |
| 2026-05-07 14:26 | 49.01340 | 2.49959 | 367 ft | 3 kts | 174° |
| 2026-05-07 14:26 | 49.01322 | 2.49961 | 368 ft | 0 kts | 174° |